Time;durP1;ratioP1;P1;durP2;ratioP2;P2;SDS_P1;SDS_P2;PMS_P1;PMS_P2;Temp;Humidity;BMP_temperature;BMP_pressure;BME280_temperature;BME280_humidity;BME280_pressure;Samples;Min_cycle;Max_cycle;Signal;HPM_P1;HPM_P2
2023/05/04 00:02:24;;;;;;;11.45;6.88;;;;;;;11.45;53.72;101996.09;3608129;39;20062;-65
2023/05/04 00:04:53;;;;;;;10.52;6.93;;;;;;;11.44;53.69;101990.75;3607340;39;20099;-65
2023/05/04 00:07:19;;;;;;;12.63;9.00;;;;;;;11.45;53.96;101993.41;3607852;39;20050;-65
2023/05/04 00:09:45;;;;;;;13.35;7.68;;;;;;;11.45;54.12;101988.03;3609417;39;20050;-65
2023/05/04 00:12:11;;;;;;;7.63;6.22;;;;;;;11.42;53.54;101987.25;3607646;39;20350;-65
2023/05/04 00:14:37;;;;;;;9.48;6.57;;;;;;;11.39;53.69;101983.78;3608279;39;20087;-66
2023/05/04 00:17:05;;;;;;;11.95;7.13;;;;;;;11.37;54.37;101977.59;3609463;39;20123;-68
2023/05/04 00:19:33;;;;;;;9.35;6.65;;;;;;;11.12;53.83;101936.59;3607317;39;20063;-66
2023/05/04 00:21:59;;;;;;;9.68;6.20;;;;;;;11.18;54.00;101935.47;3608836;39;20059;-65
2023/05/04 00:24:25;;;;;;;10.60;6.47;;;;;;;11.33;54.62;101962.53;3608373;39;20051;-66
2023/05/04 00:26:51;;;;;;;10.73;6.63;;;;;;;11.31;54.30;101959.03;3610083;39;20391;-65
2023/05/04 00:29:16;;;;;;;10.15;7.03;;;;;;;11.31;54.54;101958.16;3597595;39;20397;-66
2023/05/04 00:31:42;;;;;;;9.43;6.38;;;;;;;11.16;54.30;101922.06;3606760;39;20063;-67
2023/05/04 00:34:08;;;;;;;8.15;6.38;;;;;;;11.29;54.02;101949.28;3597062;39;20132;-66
2023/05/04 00:36:34;;;;;;;11.98;6.63;;;;;;;11.28;54.40;101947.53;3607856;39;20055;-67
2023/05/04 00:39:00;;;;;;;9.85;6.70;;;;;;;11.26;53.93;101935.97;3608743;39;20051;-66
2023/05/04 00:41:25;;;;;;;11.75;6.68;;;;;;;11.25;54.34;101942.28;3608041;39;20431;-66
2023/05/04 00:43:51;;;;;;;10.73;6.55;;;;;;;11.22;54.47;101942.44;3607989;39;20069;-66
2023/05/04 00:46:18;;;;;;;10.73;6.40;;;;;;;11.20;54.93;101939.84;3608301;39;20054;-66
2023/05/04 00:48:48;;;;;;;8.75;6.20;;;;;;;11.21;55.02;101941.56;3608393;39;20059;-66
2023/05/04 00:51:15;;;;;;;10.18;6.40;;;;;;;11.20;54.43;101941.66;3609364;39;20057;-66
2023/05/04 00:53:42;;;;;;;8.77;6.53;;;;;;;11.16;54.76;101940.91;3607261;39;20069;-66
2023/05/04 00:56:09;;;;;;;9.02;6.50;;;;;;;11.19;54.80;101940.75;3606928;39;20066;-66
2023/05/04 00:58:36;;;;;;;11.68;6.63;;;;;;;11.19;54.86;101935.38;3607035;39;20138;-66
2023/05/04 01:01:02;;;;;;;9.05;6.38;;;;;;;11.15;55.26;101936.47;3607764;39;20131;-66
2023/05/04 01:03:29;;;;;;;11.88;5.95;;;;;;;11.12;54.67;101931.22;3607640;39;20108;-66
2023/05/04 01:06:33;;;;;;;9.70;6.05;;;;;;;11.06;54.27;101936.88;3607725;39;20392;-66
2023/05/04 01:09:12;;;;;;;8.27;6.38;;;;;;;11.06;55.15;101936.88;3605604;39;20490;-66
2023/05/04 01:12:13;;;;;;;9.27;6.20;;;;;;;11.04;54.55;101930.72;3606647;39;20073;-66
2023/05/04 01:14:42;;;;;;;7.93;5.90;;;;;;;11.05;54.82;101929.78;3583379;39;20058;-66
2023/05/04 01:17:07;;;;;;;11.05;6.10;;;;;;;11.03;55.56;101921.75;3608758;39;20090;-66
2023/05/04 01:19:35;;;;;;;8.13;6.10;;;;;;;11.00;55.45;101916.50;3605691;39;20143;-66
2023/05/04 01:22:00;;;;;;;9.32;5.95;;;;;;;10.98;54.99;101920.25;3607868;39;20050;-66
2023/05/04 01:24:28;;;;;;;10.60;6.55;;;;;;;10.93;54.92;101913.22;3606954;39;20445;-66
2023/05/04 01:27:10;;;;;;;12.68;7.07;;;;;;;10.89;54.91;101908.09;3604941;39;20055;-66
2023/05/04 01:29:57;;;;;;;10.07;6.38;;;;;;;10.87;55.04;101915.34;3606351;39;20067;-66
2023/05/04 01:32:27;;;;;;;9.10;6.07;;;;;;;10.84;55.91;101921.72;3605956;39;20055;-65
2023/05/04 01:34:54;;;;;;;11.57;6.32;;;;;;;10.83;56.18;101911.91;3608989;39;20065;-66
2023/05/04 01:37:20;;;;;;;7.38;5.97;;;;;;;10.81;55.12;101915.63;3608449;39;20058;-66
2023/05/04 01:39:45;;;;;;;9.88;6.22;;;;;;;10.78;55.64;101905.88;3609416;39;20067;-66
2023/05/04 01:42:11;;;;;;;7.90;6.53;;;;;;;10.76;55.93;101907.78;3608819;39;20065;-66
2023/05/04 01:44:36;;;;;;;9.18;6.13;;;;;;;10.76;56.26;101905.06;3608632;39;20393;-66
2023/05/04 01:47:02;;;;;;;8.27;5.95;;;;;;;10.72;55.33;101906.16;3608932;39;20055;-67
2023/05/04 01:49:28;;;;;;;7.63;6.25;;;;;;;10.42;56.43;101855.50;3609212;39;20385;-66
2023/05/04 01:51:53;;;;;;;11.43;6.22;;;;;;;10.67;56.50;101903.66;3608572;39;20357;-66
2023/05/04 01:54:19;;;;;;;9.45;6.32;;;;;;;10.66;56.89;101912.69;3609643;39;20393;-66
2023/05/04 01:56:45;;;;;;;8.80;6.57;;;;;;;10.63;56.12;101906.56;3608079;39;20062;-67
2023/05/04 01:59:10;;;;;;;9.45;6.07;;;;;;;10.61;56.59;101908.44;3609863;39;20074;-66
2023/05/04 02:01:36;;;;;;;10.77;6.32;;;;;;;10.58;56.51;101911.28;3609411;39;20058;-66
2023/05/04 02:04:01;;;;;;;11.85;6.18;;;;;;;10.56;57.02;101903.28;3611271;39;20058;-67
2023/05/04 02:06:27;;;;;;;9.82;6.30;;;;;;;10.55;57.25;101903.34;3608322;39;20059;-66
2023/05/04 02:08:53;;;;;;;8.30;6.38;;;;;;;10.53;57.02;101907.91;3610827;39;20063;-67
2023/05/04 02:11:18;;;;;;;10.05;5.93;;;;;;;10.52;56.95;101912.41;3609159;39;20063;-67
2023/05/04 02:13:44;;;;;;;8.93;6.45;;;;;;;10.51;56.72;101917.88;3606856;39;20298;-66
2023/05/04 02:16:10;;;;;;;9.85;6.57;;;;;;;10.06;57.45;101836.47;3608467;39;20051;-66
2023/05/04 02:18:36;;;;;;;7.93;6.18;;;;;;;10.45;56.57;101908.25;3608558;39;20081;-67
2023/05/04 02:21:01;;;;;;;12.88;6.75;;;;;;;10.43;57.48;101902.97;3610894;39;20373;-67
2023/05/04 02:23:27;;;;;;;8.75;6.15;;;;;;;10.43;57.17;101910.13;3608538;39;20054;-65
2023/05/04 02:25:54;;;;;;;11.95;6.18;;;;;;;10.41;57.60;101907.53;3608990;39;20051;-65
2023/05/04 02:28:20;;;;;;;8.52;6.57;;;;;;;10.40;57.95;101896.81;3601100;39;20055;-65
2023/05/04 02:30:46;;;;;;;10.73;6.32;;;;;;;10.36;57.63;101889.84;3609661;39;20126;-68
2023/05/04 02:33:12;;;;;;;9.75;6.63;;;;;;;10.30;57.98;101882.03;3609068;39;20305;-66
2023/05/04 02:35:38;;;;;;;9.07;6.22;;;;;;;10.30;57.82;101892.78;3609423;39;20083;-66
2023/05/04 02:38:03;;;;;;;8.30;6.70;;;;;;;10.27;57.79;101888.41;3609099;39;20054;-66
2023/05/04 02:40:29;;;;;;;9.20;6.75;;;;;;;10.26;58.11;101888.47;3607670;39;20443;-66
2023/05/04 02:42:54;;;;;;;12.20;6.88;;;;;;;10.23;57.73;101897.53;3609341;39;20061;-66
2023/05/04 02:45:20;;;;;;;9.52;6.10;;;;;;;10.19;58.31;101886.03;3610597;39;20050;-66
2023/05/04 02:47:46;;;;;;;11.80;6.88;;;;;;;10.11;58.42;101888.19;3608972;39;20069;-66
2023/05/04 02:50:12;;;;;;;14.13;7.50;;;;;;;10.10;58.07;101885.56;3610144;39;20058;-66
2023/05/04 02:52:37;;;;;;;10.30;6.85;;;;;;;10.06;58.27;101884.84;3611547;39;20108;-66
2023/05/04 02:55:03;;;;;;;9.00;6.60;;;;;;;10.03;58.78;101884.09;3609876;39;20054;-66
2023/05/04 02:57:29;;;;;;;9.18;6.50;;;;;;;9.99;59.18;101884.22;3607584;39;20403;-66
2023/05/04 02:59:55;;;;;;;10.40;7.28;;;;;;;9.96;58.66;101888.84;3609282;39;20050;-66
2023/05/04 03:02:20;;;;;;;10.20;6.95;;;;;;;9.93;59.29;101894.34;3596657;39;20043;-66
2023/05/04 03:04:46;;;;;;;8.02;6.32;;;;;;;9.89;59.50;101882.84;3608157;39;20063;-66
2023/05/04 03:07:11;;;;;;;9.82;7.00;;;;;;;9.86;59.49;101885.66;3605330;39;20083;-66
2023/05/04 03:09:37;;;;;;;9.93;6.90;;;;;;;9.84;59.23;101886.69;3609191;39;20063;-66
2023/05/04 03:12:03;;;;;;;7.70;6.88;;;;;;;9.81;59.34;101885.00;3608251;39;20394;-66
2023/05/04 03:14:30;;;;;;;11.15;6.90;;;;;;;9.80;59.83;101879.66;3606598;39;20057;-66
2023/05/04 03:16:56;;;;;;;9.27;7.07;;;;;;;9.80;60.21;101883.25;3607861;39;20059;-67
2023/05/04 03:19:22;;;;;;;9.63;6.60;;;;;;;9.76;60.22;101887.84;3608010;39;20131;-66
2023/05/04 03:21:48;;;;;;;10.85;7.30;;;;;;;9.73;60.49;101881.75;3609584;39;20070;-66
2023/05/04 03:24:17;;;;;;;13.38;7.50;;;;;;;9.71;59.75;101872.91;3610026;39;20059;-65
2023/05/04 03:26:43;;;;;;;11.50;7.07;;;;;;;9.68;60.21;101873.03;3607712;39;20290;-66
2023/05/04 03:29:09;;;;;;;11.30;7.57;;;;;;;9.66;60.13;101872.19;3607161;39;20120;-66
2023/05/04 03:31:35;;;;;;;11.95;7.75;;;;;;;9.64;60.80;101868.69;3608205;39;20215;-66
2023/05/04 03:34:02;;;;;;;9.55;7.60;;;;;;;9.59;60.73;101865.34;3607301;39;20136;-65
2023/05/04 03:36:28;;;;;;;8.73;7.40;;;;;;;9.59;60.46;101871.56;3607025;39;20139;-66
2023/05/04 03:38:54;;;;;;;11.63;7.80;;;;;;;9.54;61.35;101866.38;3598885;39;20054;-66
2023/05/04 03:41:20;;;;;;;10.07;7.35;;;;;;;9.51;61.14;101863.84;3602370;39;20043;-65
2023/05/04 03:43:45;;;;;;;11.05;7.72;;;;;;;9.49;61.69;101857.66;3609684;39;20115;-68
2023/05/04 03:46:11;;;;;;;12.40;7.50;;;;;;;9.48;61.96;101855.91;3606950;39;20552;-67
2023/05/04 03:48:38;;;;;;;9.63;7.47;;;;;;;9.50;61.35;101855.84;3607461;39;20063;-66
2023/05/04 03:51:05;;;;;;;11.23;7.43;;;;;;;9.48;61.38;101850.56;3608811;39;20058;-66
2023/05/04 03:53:33;;;;;;;9.57;6.93;;;;;;;9.46;61.43;101852.41;3606759;39;20282;-66
2023/05/04 03:55:59;;;;;;;9.38;6.68;;;;;;;9.43;61.85;101846.31;3607627;39;20119;-67
2023/05/04 03:58:24;;;;;;;8.13;6.75;;;;;;;9.42;61.44;101842.75;3609338;39;20050;-67
2023/05/04 04:00:50;;;;;;;11.45;7.10;;;;;;;9.45;61.38;101848.00;3611186;39;20066;-66
2023/05/04 04:03:16;;;;;;;12.25;7.63;;;;;;;9.38;61.77;101833.06;3604502;39;20080;-66
2023/05/04 04:05:41;;;;;;;11.52;7.40;;;;;;;9.43;61.59;101847.19;3607946;39;20452;-66
2023/05/04 04:08:07;;;;;;;9.95;7.32;;;;;;;9.41;61.48;101842.78;3608891;39;20410;-66
2023/05/04 04:10:33;;;;;;;15.98;8.00;;;;;;;9.44;62.30;101851.59;3607814;39;20071;-66
2023/05/04 04:12:59;;;;;;;14.27;8.52;;;;;;;9.42;61.68;101849.91;3609965;39;20042;-66
2023/05/04 04:15:24;;;;;;;10.20;7.57;;;;;;;9.41;61.64;101849.03;3609110;39;20053;-66
2023/05/04 04:17:50;;;;;;;10.88;7.20;;;;;;;9.42;62.45;101849.91;3611319;39;20057;-66
2023/05/04 04:20:15;;;;;;;14.35;7.90;;;;;;;9.41;62.14;101849.03;3606727;39;20074;-66
2023/05/04 04:22:41;;;;;;;10.40;7.53;;;;;;;9.41;61.69;101854.41;3608185;39;20381;-66
2023/05/04 04:25:07;;;;;;;10.25;7.28;;;;;;;9.41;61.61;101843.66;3609219;39;20059;-68
2023/05/04 04:27:33;;;;;;;9.13;7.15;;;;;;;9.42;62.07;101828.44;3604993;39;20063;-67
2023/05/04 04:29:59;;;;;;;12.57;7.50;;;;;;;9.44;61.53;101837.31;3608666;39;20051;-68
2023/05/04 04:32:25;;;;;;;13.13;8.15;;;;;;;9.46;62.29;101833.63;3607476;39;20123;-67
2023/05/04 04:34:50;;;;;;;11.23;7.68;;;;;;;9.47;61.57;101827.31;3607888;39;20097;-68
2023/05/04 04:37:16;;;;;;;11.15;7.40;;;;;;;9.49;61.67;101819.22;3605917;39;20317;-67
2023/05/04 04:39:41;;;;;;;11.25;7.35;;;;;;;9.46;62.13;101816.66;3592662;39;20058;-68
2023/05/04 04:42:07;;;;;;;9.73;7.97;;;;;;;9.51;61.73;101823.59;3608310;39;20453;-68
2023/05/04 04:44:32;;;;;;;12.23;7.32;;;;;;;9.53;62.09;101826.19;3606247;39;20086;-68
2023/05/04 04:46:58;;;;;;;12.57;6.95;;;;;;;9.59;62.09;101834.00;3607129;39;20289;-68
2023/05/04 04:49:23;;;;;;;11.27;6.90;;;;;;;9.65;62.03;101835.56;3607343;39;20054;-68
2023/05/04 04:51:49;;;;;;;11.77;7.38;;;;;;;9.68;62.23;101835.44;3607235;39;20074;-67
2023/05/04 04:54:15;;;;;;;13.60;7.53;;;;;;;9.69;61.41;101834.47;3608223;39;20471;-68
2023/05/04 04:56:41;;;;;;;10.90;6.97;;;;;;;9.71;61.69;101832.63;3605272;39;20051;-67
2023/05/04 04:59:06;;;;;;;9.80;6.95;;;;;;;9.75;61.59;101831.53;3608117;39;20424;-68
2023/05/04 05:01:32;;;;;;;14.32;7.18;;;;;;;9.75;61.29;101831.53;3607108;39;20069;-68
2023/05/04 05:03:58;;;;;;;10.27;7.32;;;;;;;9.83;61.07;101829.41;3605112;39;20047;-68
2023/05/04 05:06:25;;;;;;;9.00;7.07;;;;;;;9.85;61.28;101830.22;3607027;39;20091;-67
2023/05/04 05:08:51;;;;;;;13.30;7.53;;;;;;;9.89;61.56;101839.88;3607377;39;20063;-67
2023/05/04 05:11:17;;;;;;;15.70;7.22;;;;;;;9.92;61.17;101833.50;3607010;39;20074;-68
2023/05/04 05:13:42;;;;;;;13.15;6.88;;;;;;;9.96;60.97;101841.38;3610626;39;20067;-68
2023/05/04 05:16:08;;;;;;;12.60;7.78;;;;;;;9.99;61.00;101835.00;3610184;39;20054;-67
2023/05/04 05:18:34;;;;;;;10.15;6.63;;;;;;;10.04;60.92;101837.47;3608464;39;20066;-68
2023/05/04 05:20:59;;;;;;;10.73;7.22;;;;;;;10.09;60.80;101836.34;3610686;39;20601;-68
2023/05/04 05:23:25;;;;;;;13.77;7.63;;;;;;;10.16;61.13;101842.31;3609542;39;20086;-67
2023/05/04 05:25:52;;;;;;;10.85;7.25;;;;;;;10.20;61.17;101839.41;3607586;39;20054;-68
2023/05/04 05:28:18;;;;;;;12.82;6.95;;;;;;;10.10;60.82;101816.59;3606107;39;20054;-68
2023/05/04 05:30:44;;;;;;;10.88;6.55;;;;;;;10.25;60.79;101831.16;3608522;39;20062;-68
2023/05/04 05:33:09;;;;;;;10.15;6.55;;;;;;;10.38;61.09;101843.16;3607987;39;20061;-68
2023/05/04 05:35:35;;;;;;;10.82;7.63;;;;;;;10.42;60.08;101839.38;3608763;39;20063;-68
2023/05/04 05:38:01;;;;;;;10.30;7.18;;;;;;;10.49;60.39;101839.97;3608371;39;20066;-68
2023/05/04 05:40:28;;;;;;;9.57;6.78;;;;;;;10.51;60.44;101832.72;3607235;39;20062;-68
2023/05/04 05:42:53;;;;;;;11.90;6.80;;;;;;;10.61;59.27;101843.91;3597014;39;20131;-68
2023/05/04 05:45:19;;;;;;;11.80;6.82;;;;;;;10.67;60.20;101839.13;3609922;39;20073;-68
2023/05/04 05:47:45;;;;;;;11.93;6.80;;;;;;;10.74;59.41;101839.72;3606529;39;20078;-68
2023/05/04 05:50:12;;;;;;;10.93;6.60;;;;;;;10.81;59.25;101835.78;3608976;39;20099;-68
2023/05/04 05:52:38;;;;;;;11.45;6.68;;;;;;;10.87;59.57;101830.13;3609161;39;20367;-68
2023/05/04 05:55:04;;;;;;;9.63;6.63;;;;;;;10.96;59.59;101838.72;3607294;39;21282;-68
2023/05/04 05:57:30;;;;;;;10.80;7.25;;;;;;;11.02;58.99;101833.91;3608658;39;20059;-68
2023/05/04 05:59:56;;;;;;;8.88;6.35;;;;;;;11.09;58.15;101831.81;3606745;39;20062;-67
2023/05/04 06:02:23;;;;;;;13.77;6.55;;;;;;;11.16;58.07;101827.88;3605066;39;20062;-67
2023/05/04 06:04:48;;;;;;;16.92;6.85;;;;;;;10.92;58.00;101778.81;3606413;39;20079;-68
2023/05/04 06:07:14;;;;;;;11.90;6.30;;;;;;;11.31;58.02;101824.44;3605688;39;20059;-68
2023/05/04 06:09:40;;;;;;;14.55;6.25;;;;;;;11.38;57.25;101825.91;3609843;39;20059;-68
2023/05/04 06:12:11;;;;;;;12.65;6.47;;;;;;;11.47;57.20;101829.06;3605959;39;20054;-68
2023/05/04 06:14:37;;;;;;;15.15;6.60;;;;;;;11.50;57.11;101823.53;3605670;39;20063;-67
2023/05/04 06:17:03;;;;;;;12.02;6.28;;;;;;;11.53;57.71;101812.63;3605718;39;20065;-68
2023/05/04 06:19:28;;;;;;;9.65;6.07;;;;;;;11.65;57.59;101817.38;3604840;39;20051;-67
2023/05/04 06:21:54;;;;;;;12.23;6.70;;;;;;;11.69;56.60;101807.31;3601527;39;20050;-67
2023/05/04 06:24:21;;;;;;;9.75;6.10;;;;;;;11.80;56.79;101799.59;3610400;39;20362;-68
2023/05/04 06:26:47;;;;;;;10.68;6.10;;;;;;;11.87;56.25;101794.78;3605966;39;20070;-67
2023/05/04 06:29:12;;;;;;;8.20;6.00;;;;;;;11.95;56.27;101800.63;3606291;39;20438;-68
2023/05/04 06:31:38;;;;;;;12.40;6.78;;;;;;;12.07;55.77;101792.78;3606711;39;20050;-68
2023/05/04 06:34:03;;;;;;;13.60;7.00;;;;;;;12.06;55.94;101774.00;3604613;39;20059;-67
2023/05/04 06:36:30;;;;;;;12.02;6.35;;;;;;;12.30;55.50;101791.56;3605004;39;20047;-67
2023/05/04 06:38:57;;;;;;;10.02;6.13;;;;;;;12.46;55.30;101785.31;3606822;39;20481;-68
2023/05/04 06:41:23;;;;;;;9.18;6.07;;;;;;;12.60;54.35;101790.84;3608539;39;20400;-68
2023/05/04 06:43:49;;;;;;;7.53;6.18;;;;;;;12.67;54.01;101788.69;3607482;39;20078;-68
2023/05/04 06:46:15;;;;;;;7.32;5.55;;;;;;;12.78;55.07;101784.44;3604937;39;20378;-68
2023/05/04 06:48:41;;;;;;;9.60;6.00;;;;;;;12.95;53.11;101785.31;3606410;39;20051;-68
2023/05/04 06:51:06;;;;;;;7.65;5.93;;;;;;;13.05;53.85;101775.75;3607787;39;20055;-67
2023/05/04 06:53:32;;;;;;;10.43;5.97;;;;;;;13.21;53.08;101782.00;3607510;39;20054;-68
2023/05/04 06:55:57;;;;;;;11.70;5.65;;;;;;;13.24;52.56;101765.66;3608169;39;20077;-68
2023/05/04 06:58:24;;;;;;;13.00;5.65;;;;;;;13.38;52.69;101777.47;3609152;39;20062;-67
2023/05/04 07:00:50;;;;;;;9.40;5.93;;;;;;;13.51;52.25;101777.63;3606282;39;20062;-68
2023/05/04 07:03:16;;;;;;;12.35;5.78;;;;;;;13.65;52.23;101775.00;3605836;39;20263;-68
2023/05/04 07:05:44;;;;;;;8.57;6.18;;;;;;;13.81;52.34;101774.94;3607489;39;20047;-68
2023/05/04 07:08:10;;;;;;;10.88;5.72;;;;;;;13.92;51.68;101762.53;3606919;39;20095;-68
2023/05/04 07:10:36;;;;;;;11.43;6.07;;;;;;;14.08;51.47;101766.97;3607016;39;20051;-66
2023/05/04 07:13:02;;;;;;;12.07;6.00;;;;;;;14.23;51.13;101765.16;3604901;39;20061;-66
2023/05/04 07:15:28;;;;;;;8.73;5.60;;;;;;;14.23;50.77;101746.22;3606086;39;20058;-67
2023/05/04 07:17:54;;;;;;;9.07;5.50;;;;;;;14.40;50.07;101756.88;3605219;39;20047;-66
2023/05/04 07:20:20;;;;;;;10.45;5.68;;;;;;;14.56;50.17;101759.50;3604677;39;20344;-67
2023/05/04 07:22:46;;;;;;;13.90;5.57;;;;;;;14.78;50.06;101758.97;3607712;39;20078;-68
2023/05/04 07:25:12;;;;;;;10.05;5.57;;;;;;;15.01;49.52;101763.78;3602575;39;20054;-67
2023/05/04 07:27:39;;;;;;;8.77;5.30;;;;;;;15.30;49.34;101752.84;3604617;39;20055;-67
2023/05/04 07:30:07;;;;;;;8.95;5.60;;;;;;;15.63;48.03;101760.53;3604308;39;20044;-67
2023/05/04 07:32:32;;;;;;;9.13;5.25;;;;;;;15.75;46.36;101748.88;3607843;39;20426;-67
2023/05/04 07:34:58;;;;;;;8.23;5.28;;;;;;;15.78;45.83;101753.22;3595530;39;20138;-67
2023/05/04 07:37:23;;;;;;;10.32;5.30;;;;;;;15.84;46.63;101751.94;3603941;39;20275;-67
2023/05/04 07:39:49;;;;;;;7.90;5.00;;;;;;;15.75;45.32;101753.44;3603145;39;20054;-66
2023/05/04 07:42:15;;;;;;;14.98;5.78;;;;;;;15.75;45.64;101745.31;3604733;39;20051;-67
2023/05/04 07:44:41;;;;;;;8.52;5.50;;;;;;;15.89;45.83;101749.75;3605280;39;20047;-67
2023/05/04 07:47:07;;;;;;;18.58;6.15;;;;;;;15.91;45.21;101736.97;3610294;39;21451;-67
2023/05/04 07:49:33;;;;;;;13.07;5.65;;;;;;;16.05;45.55;101749.56;3606887;39;20051;-67
2023/05/04 07:51:58;;;;;;;9.07;5.03;;;;;;;16.23;44.62;101743.72;3608250;39;20318;-67
2023/05/04 07:54:24;;;;;;;16.50;5.40;;;;;;;16.29;45.11;101746.97;3607713;39;20065;-67
2023/05/04 07:56:50;;;;;;;8.48;5.63;;;;;;;16.50;45.22;101745.44;3606421;39;20066;-67
2023/05/04 07:59:18;;;;;;;9.05;5.82;;;;;;;16.72;43.79;101742.03;3607258;39;20059;-67
2023/05/04 08:01:45;;;;;;;8.38;5.07;;;;;;;16.89;44.16;101744.41;3607052;39;20083;-67
2023/05/04 08:04:10;;;;;;;8.73;5.05;;;;;;;17.20;44.10;101744.84;3593597;39;20334;-67
2023/05/04 08:06:38;;;;;;;7.80;4.97;;;;;;;17.33;42.13;101740.22;3608325;39;20398;-67
2023/05/04 08:09:05;;;;;;;9.68;4.90;;;;;;;17.54;42.72;101736.84;3603259;39;20370;-67
2023/05/04 08:11:33;;;;;;;10.57;4.65;;;;;;;17.82;42.89;101735.59;3597113;39;20076;-67
2023/05/04 08:13:59;;;;;;;7.88;4.85;;;;;;;17.96;41.91;101738.13;3604905;39;20099;-67
2023/05/04 08:16:25;;;;;;;10.35;5.30;;;;;;;18.06;41.57;101725.50;3607146;39;20055;-67
2023/05/04 08:18:51;;;;;;;7.95;5.50;;;;;;;18.17;41.02;101730.09;3607336;39;20290;-67
2023/05/04 08:21:16;;;;;;;8.63;5.38;;;;;;;18.23;41.04;101721.44;3608035;39;20043;-67
2023/05/04 08:23:42;;;;;;;7.97;5.30;;;;;;;18.17;40.39;101710.19;3608437;39;20058;-67
2023/05/04 08:26:08;;;;;;;15.07;5.25;;;;;;;18.22;40.33;101711.56;3608367;39;20051;-67
2023/05/04 08:28:38;;;;;;;11.20;5.75;;;;;;;18.22;40.61;101722.44;3608560;39;20042;-67
2023/05/04 08:31:03;;;;;;;10.43;5.25;;;;;;;18.28;40.88;101711.06;3608285;39;20043;-67
2023/05/04 08:33:29;;;;;;;8.68;4.88;;;;;;;18.39;40.83;101714.78;3608058;39;20047;-67
2023/05/04 08:35:55;;;;;;;10.60;5.38;;;;;;;18.57;41.70;101718.72;3607818;39;20063;-67
2023/05/04 08:38:20;;;;;;;10.38;6.13;;;;;;;18.77;39.87;101714.41;3608056;39;20058;-67
2023/05/04 08:40:46;;;;;;;6.57;5.30;;;;;;;18.94;40.38;101713.03;3608404;39;20282;-66
2023/05/04 08:43:12;;;;;;;8.77;5.28;;;;;;;19.06;39.33;101706.56;3607162;39;20318;-68
2023/05/04 08:45:39;;;;;;;10.38;5.57;;;;;;;19.10;39.93;101697.13;3605987;39;20087;-67
2023/05/04 08:48:07;;;;;;;8.60;5.68;;;;;;;19.29;38.93;101695.56;3607585;39;20376;-67
2023/05/04 08:50:34;;;;;;;9.55;5.75;;;;;;;19.33;38.94;101669.75;3605971;39;20056;-65
2023/05/04 08:53:05;;;;;;;6.95;5.10;;;;;;;19.69;39.82;101679.38;3608076;39;20404;-66
2023/05/04 08:55:36;;;;;;;7.25;4.68;;;;;;;19.88;38.31;101665.00;3604970;39;20047;-65
2023/05/04 08:58:08;;;;;;;9.20;5.28;;;;;;;19.96;38.62;101662.47;3609998;39;20128;-65
2023/05/04 09:00:37;;;;;;;13.43;5.10;;;;;;;19.92;38.25;101669.22;3606459;39;20047;-66
2023/05/04 09:03:06;;;;;;;5.28;4.30;;;;;;;20.13;38.20;101669.16;3605598;39;20083;-65
2023/05/04 09:05:32;;;;;;;8.45;4.90;;;;;;;20.22;38.12;101667.47;3608786;39;20055;-66
2023/05/04 09:07:58;;;;;;;9.98;4.78;;;;;;;20.31;36.67;101662.06;3608891;39;20065;-66
2023/05/04 09:10:24;;;;;;;13.45;5.47;;;;;;;20.27;37.39;101666.06;3605011;39;20059;-65
2023/05/04 09:12:54;;;;;;;13.85;5.80;;;;;;;20.24;38.26;101663.63;3609115;39;20130;-65
2023/05/04 09:15:21;;;;;;;11.70;5.68;;;;;;;20.33;37.67;101657.31;3609399;39;20055;-66
2023/05/04 09:18:06;;;;;;;16.73;5.70;;;;;;;20.53;36.99;101655.56;3607346;39;20334;-66
2023/05/04 09:20:46;;;;;;;11.18;4.93;;;;;;;20.66;36.50;101660.75;3605714;39;20079;-65
2023/05/04 09:23:14;;;;;;;13.02;5.28;;;;;;;20.79;36.71;101666.81;3609870;39;20063;-65
2023/05/04 09:25:50;;;;;;;22.73;5.35;;;;;;;20.99;36.64;101672.31;3608076;39;20329;-65
2023/05/04 09:28:18;;;;;;;10.10;4.82;;;;;;;21.22;36.87;101667.47;3608194;39;20055;-66
2023/05/04 09:30:47;;;;;;;13.88;5.15;;;;;;;21.22;35.43;101618.25;3606756;39;20051;-66
2023/05/04 09:33:15;;;;;;;9.27;4.68;;;;;;;21.62;35.27;101652.75;3607557;39;20124;-66
2023/05/04 09:35:43;;;;;;;9.77;5.10;;;;;;;21.79;34.70;101641.06;3610377;39;20063;-66
2023/05/04 09:38:09;;;;;;;9.75;4.90;;;;;;;22.03;34.57;101646.88;3607486;39;20051;-67
2023/05/04 09:40:40;;;;;;;10.02;5.22;;;;;;;21.98;35.24;101648.38;3612252;39;20120;-66
2023/05/04 09:43:08;;;;;;;7.85;4.82;;;;;;;22.18;35.08;101640.97;3607604;39;20067;-67
2023/05/04 09:45:45;;;;;;;7.82;4.63;;;;;;;22.54;35.18;101646.53;3610111;39;20051;-67
2023/05/04 09:48:33;;;;;;;7.25;4.40;;;;;;;22.95;34.31;101642.41;3610266;39;20270;-66
2023/05/04 09:51:01;;;;;;;6.72;4.40;;;;;;;23.21;33.65;101637.00;3607062;39;20055;-66
2023/05/04 09:53:32;;;;;;;6.57;4.50;;;;;;;23.47;33.57;101633.44;3607839;39;20055;-67
2023/05/04 09:56:31;;;;;;;7.03;4.00;;;;;;;23.22;32.80;101588.50;3608201;39;20291;-67
2023/05/04 09:58:57;;;;;;;6.65;4.47;;;;;;;23.63;32.70;101630.84;3605066;39;20438;-67
2023/05/04 10:01:29;;;;;;;6.95;4.47;;;;;;;23.91;31.80;101628.78;3605720;39;20387;-66
2023/05/04 10:03:55;;;;;;;7.03;4.70;;;;;;;24.04;31.78;101629.25;3605851;39;20149;-66
2023/05/04 10:06:23;;;;;;;7.45;4.78;;;;;;;24.04;31.97;101617.34;3609379;39;20050;-67
2023/05/04 10:08:50;;;;;;;11.43;4.78;;;;;;;24.15;32.27;101614.34;3607994;39;20059;-68
2023/05/04 10:11:18;;;;;;;8.57;4.53;;;;;;;24.32;32.40;101605.13;3607809;39;20062;-67
2023/05/04 10:13:50;;;;;;;8.48;4.72;;;;;;;24.40;31.91;101597.97;3606697;39;20043;-67
2023/05/04 10:16:19;;;;;;;7.45;4.60;;;;;;;24.46;33.23;101594.59;3609008;39;20121;-66
2023/05/04 10:19:15;;;;;;;8.05;5.00;;;;;;;24.58;31.85;101585.00;3608521;39;20054;-66
2023/05/04 10:22:29;;;;;;;7.05;4.95;;;;;;;24.63;30.53;101584.47;3609616;39;20411;-66
2023/05/04 10:25:26;;;;;;;7.57;4.55;;;;;;;24.91;31.48;101576.78;3608478;39;20062;-67
2023/05/04 10:28:55;;;;;;;7.47;4.60;;;;;;;25.06;32.74;101564.09;3606526;39;20325;-67
2023/05/04 10:31:21;;;;;;;8.07;5.70;;;;;;;25.16;29.73;101556.53;3599908;39;20321;-67
2023/05/04 10:33:47;;;;;;;7.38;5.10;;;;;;;25.16;30.59;101553.78;3607235;39;20051;-67
2023/05/04 10:36:13;;;;;;;6.57;4.50;;;;;;;25.26;30.49;101555.50;3606831;39;20055;-67
2023/05/04 10:38:40;;;;;;;6.75;4.63;;;;;;;25.47;30.94;101544.81;3608104;39;20074;-66
2023/05/04 10:41:18;;;;;;;8.70;4.65;;;;;;;25.34;29.88;101505.94;3609091;39;20363;-66
2023/05/04 10:43:49;;;;;;;7.70;4.63;;;;;;;25.57;30.10;101536.34;3610173;39;20356;-67
2023/05/04 10:46:21;;;;;;;6.32;4.60;;;;;;;25.62;30.37;101542.19;3609448;39;20050;-67
2023/05/04 10:48:48;;;;;;;8.80;4.72;;;;;;;25.66;29.60;101533.41;3608276;39;20369;-66
2023/05/04 10:51:22;;;;;;;7.20;4.45;;;;;;;25.44;30.15;101479.09;3606719;39;20059;-67
2023/05/04 10:53:48;;;;;;;7.18;4.10;;;;;;;25.57;29.15;101497.81;3607289;39;20051;-67
2023/05/04 10:56:27;;;;;;;5.50;4.65;;;;;;;25.33;29.30;101488.56;3607336;39;20055;-67
2023/05/04 10:58:54;;;;;;;7.93;4.43;;;;;;;25.41;30.40;101495.97;3606671;39;20050;-67
2023/05/04 11:01:21;;;;;;;7.93;4.15;;;;;;;25.71;30.41;101492.41;3605155;39;20047;-67
2023/05/04 11:03:52;;;;;;;7.03;4.00;;;;;;;26.10;29.45;101499.84;3604416;39;20114;-67
2023/05/04 11:06:22;;;;;;;6.28;4.40;;;;;;;26.13;28.79;101491.22;3607372;39;20418;-67
2023/05/04 11:09:00;;;;;;;7.90;4.30;;;;;;;26.20;29.27;101487.72;3606311;39;20350;-67
2023/05/04 11:11:26;;;;;;;6.70;4.07;;;;;;;26.24;28.49;101491.84;3609480;39;20085;-67
2023/05/04 11:13:53;;;;;;;4.65;4.20;;;;;;;26.13;28.88;101495.84;3608466;39;20070;-67
2023/05/04 11:16:26;;;;;;;5.95;4.00;;;;;;;25.92;28.82;101438.66;3605236;39;20043;-66
2023/05/04 11:19:06;;;;;;;;;;;;;;;26.41;28.20;101482.41;3606828;39;20062;-66
2023/05/04 11:21:31;;;;;;;7.72;4.82;;;;;;;26.35;27.07;101472.13;3607955;39;19931;-66
2023/05/04 11:23:59;;;;;;;8.68;4.28;;;;;;;26.45;27.42;101472.75;3608427;39;20409;-66
2023/05/04 11:26:27;;;;;;;8.05;3.80;;;;;;;26.66;28.46;101469.34;3612502;39;20057;-65
2023/05/04 11:28:52;;;;;;;7.57;4.22;;;;;;;26.53;27.46;101469.09;3607162;39;20513;-66